Frisbie, Pennsylvania
Current Conditions -  °F | °C
As of 12:54 PM on Sunday 25 Jan 2015 (Local Time) from KRDG Reporting Station
Overcast Overcast  
Wind Chill: 34°   Ceiling: 3200
Heat Index: 40°   Visibility: 10mi
Dew Point: 30°   Wind: 9mph
Humidity: 68%   Direction: 270°W
Pressure: 29.8"   Gusts: NA
Location:  40.633°N, 76.068°W
Report Text: KRDG 251754Z AUTO 27008KT 10SM OVC032 04/M01 A2980 RMK AO2 SLP099 T00441011 10044 20017 50012
Loading
Personal Weather Stations






























Interactive Weather Map New forecast layout! Learn more

10-Day Weather Forecast

Advertisements
Track Severe Weather on mobile